sensor_id;sensor_type;location;lat;lon;timestamp;P1;durP1;ratioP1;P2;durP2;ratioP2
3573;SDS011;1801;51.050;6.246;2022-11-03T00:02:11;11.30;;;2.73;;
3573;SDS011;1801;51.050;6.246;2022-11-03T00:04:36;7.67;;;2.63;;
3573;SDS011;1801;51.050;6.246;2022-11-03T00:07:02;11.33;;;3.30;;
3573;SDS011;1801;51.050;6.246;2022-11-03T00:09:27;14.80;;;2.00;;
3573;SDS011;1801;51.050;6.246;2022-11-03T00:11:52;7.90;;;1.87;;
3573;SDS011;1801;51.050;6.246;2022-11-03T00:14:17;17.40;;;2.43;;
3573;SDS011;1801;51.050;6.246;2022-11-03T00:16:43;10.77;;;1.93;;
3573;SDS011;1801;51.050;6.246;2022-11-03T00:19:08;12.83;;;2.40;;
3573;SDS011;1801;51.050;6.246;2022-11-03T00:21:34;11.53;;;1.80;;
3573;SDS011;1801;51.050;6.246;2022-11-03T00:23:59;12.63;;;2.90;;
3573;SDS011;1801;51.050;6.246;2022-11-03T00:26:28;3.43;;;1.70;;
3573;SDS011;1801;51.050;6.246;2022-11-03T00:28:54;10.50;;;2.63;;
3573;SDS011;1801;51.050;6.246;2022-11-03T00:33:45;11.43;;;2.10;;
3573;SDS011;1801;51.050;6.246;2022-11-03T00:36:12;12.50;;;2.57;;
3573;SDS011;1801;51.050;6.246;2022-11-03T00:38:38;9.50;;;3.20;;
3573;SDS011;1801;51.050;6.246;2022-11-03T00:41:04;6.23;;;1.87;;
3573;SDS011;1801;51.050;6.246;2022-11-03T00:43:30;6.50;;;2.10;;
3573;SDS011;1801;51.050;6.246;2022-11-03T00:45:56;9.97;;;2.90;;
3573;SDS011;1801;51.050;6.246;2022-11-03T00:48:21;4.67;;;1.90;;
3573;SDS011;1801;51.050;6.246;2022-11-03T00:51:11;8.60;;;1.93;;
3573;SDS011;1801;51.050;6.246;2022-11-03T00:53:38;16.63;;;2.20;;
3573;SDS011;1801;51.050;6.246;2022-11-03T00:56:04;9.60;;;2.10;;
3573;SDS011;1801;51.050;6.246;2022-11-03T00:58:30;6.53;;;1.90;;
3573;SDS011;1801;51.050;6.246;2022-11-03T01:00:59;4.47;;;1.90;;
3573;SDS011;1801;51.050;6.246;2022-11-03T01:03:25;6.20;;;1.43;;
3573;SDS011;1801;51.050;6.246;2022-11-03T01:05:50;12.50;;;1.97;;
3573;SDS011;1801;51.050;6.246;2022-11-03T01:08:34;7.07;;;2.30;;
3573;SDS011;1801;51.050;6.246;2022-11-03T01:11:19;4.53;;;1.67;;
3573;SDS011;1801;51.050;6.246;2022-11-03T01:14:04;7.97;;;2.37;;
3573;SDS011;1801;51.050;6.246;2022-11-03T01:16:29;20.13;;;3.60;;
3573;SDS011;1801;51.050;6.246;2022-11-03T01:18:54;5.97;;;1.67;;
3573;SDS011;1801;51.050;6.246;2022-11-03T01:21:20;18.43;;;2.00;;
3573;SDS011;1801;51.050;6.246;2022-11-03T01:23:45;18.63;;;2.10;;
3573;SDS011;1801;51.050;6.246;2022-11-03T01:26:11;6.70;;;2.40;;
3573;SDS011;1801;51.050;6.246;2022-11-03T01:28:37;9.57;;;2.30;;
3573;SDS011;1801;51.050;6.246;2022-11-03T01:31:06;6.43;;;1.70;;
3573;SDS011;1801;51.050;6.246;2022-11-03T01:33:32;3.07;;;2.20;;
3573;SDS011;1801;51.050;6.246;2022-11-03T01:35:57;11.33;;;2.40;;
3573;SDS011;1801;51.050;6.246;2022-11-03T01:38:23;6.67;;;2.37;;
3573;SDS011;1801;51.050;6.246;2022-11-03T01:40:48;12.67;;;2.30;;
3573;SDS011;1801;51.050;6.246;2022-11-03T01:43:14;3.17;;;1.57;;
3573;SDS011;1801;51.050;6.246;2022-11-03T01:45:39;7.73;;;2.40;;
3573;SDS011;1801;51.050;6.246;2022-11-03T01:48:04;6.73;;;2.20;;
3573;SDS011;1801;51.050;6.246;2022-11-03T01:50:29;11.07;;;2.70;;
3573;SDS011;1801;51.050;6.246;2022-11-03T01:52:55;6.70;;;2.00;;
3573;SDS011;1801;51.050;6.246;2022-11-03T01:55:23;10.50;;;2.20;;
3573;SDS011;1801;51.050;6.246;2022-11-03T01:57:55;7.03;;;1.80;;
3573;SDS011;1801;51.050;6.246;2022-11-03T02:00:21;5.47;;;2.00;;
3573;SDS011;1801;51.050;6.246;2022-11-03T02:02:46;4.17;;;1.53;;
3573;SDS011;1801;51.050;6.246;2022-11-03T02:05:12;10.53;;;2.10;;
3573;SDS011;1801;51.050;6.246;2022-11-03T02:07:42;11.13;;;2.30;;
3573;SDS011;1801;51.050;6.246;2022-11-03T02:10:08;6.37;;;2.90;;
3573;SDS011;1801;51.050;6.246;2022-11-03T02:12:34;10.23;;;2.97;;
3573;SDS011;1801;51.050;6.246;2022-11-03T02:15:02;5.27;;;2.03;;
3573;SDS011;1801;51.050;6.246;2022-11-03T02:17:28;13.23;;;2.43;;
3573;SDS011;1801;51.050;6.246;2022-11-03T02:22:41;7.23;;;2.33;;
3573;SDS011;1801;51.050;6.246;2022-11-03T02:25:10;6.77;;;2.03;;
3573;SDS011;1801;51.050;6.246;2022-11-03T02:27:38;11.53;;;2.20;;
3573;SDS011;1801;51.050;6.246;2022-11-03T02:30:03;13.73;;;2.53;;
3573;SDS011;1801;51.050;6.246;2022-11-03T02:32:31;11.80;;;2.60;;
3573;SDS011;1801;51.050;6.246;2022-11-03T02:37:26;13.50;;;2.07;;
3573;SDS011;1801;51.050;6.246;2022-11-03T02:39:55;11.70;;;2.10;;
3573;SDS011;1801;51.050;6.246;2022-11-03T02:42:22;11.40;;;2.97;;
3573;SDS011;1801;51.050;6.246;2022-11-03T02:44:48;11.83;;;2.67;;
3573;SDS011;1801;51.050;6.246;2022-11-03T02:47:15;9.93;;;2.07;;
3573;SDS011;1801;51.050;6.246;2022-11-03T02:49:44;7.50;;;2.40;;
3573;SDS011;1801;51.050;6.246;2022-11-03T02:52:31;18.27;;;2.77;;
3573;SDS011;1801;51.050;6.246;2022-11-03T02:54:57;9.77;;;2.40;;
3573;SDS011;1801;51.050;6.246;2022-11-03T02:57:25;5.63;;;1.80;;
3573;SDS011;1801;51.050;6.246;2022-11-03T02:59:54;5.33;;;2.20;;
3573;SDS011;1801;51.050;6.246;2022-11-03T03:02:23;14.00;;;2.70;;
3573;SDS011;1801;51.050;6.246;2022-11-03T03:04:52;7.97;;;2.20;;
3573;SDS011;1801;51.050;6.246;2022-11-03T03:07:21;13.00;;;2.30;;
3573;SDS011;1801;51.050;6.246;2022-11-03T03:09:51;9.37;;;2.33;;
3573;SDS011;1801;51.050;6.246;2022-11-03T03:12:17;9.47;;;2.77;;
3573;SDS011;1801;51.050;6.246;2022-11-03T03:14:44;7.90;;;1.67;;
3573;SDS011;1801;51.050;6.246;2022-11-03T03:19:48;6.83;;;2.07;;
3573;SDS011;1801;51.050;6.246;2022-11-03T03:22:27;6.73;;;2.13;;
3573;SDS011;1801;51.050;6.246;2022-11-03T03:27:25;12.90;;;2.50;;
3573;SDS011;1801;51.050;6.246;2022-11-03T03:29:52;7.63;;;2.60;;
3573;SDS011;1801;51.050;6.246;2022-11-03T03:32:19;5.47;;;1.63;;
3573;SDS011;1801;51.050;6.246;2022-11-03T03:34:46;10.20;;;2.33;;
3573;SDS011;1801;51.050;6.246;2022-11-03T03:37:13;9.97;;;2.83;;
3573;SDS011;1801;51.050;6.246;2022-11-03T03:39:39;9.70;;;3.00;;
3573;SDS011;1801;51.050;6.246;2022-11-03T03:42:07;6.53;;;1.93;;
3573;SDS011;1801;51.050;6.246;2022-11-03T03:44:34;10.33;;;4.40;;
3573;SDS011;1801;51.050;6.246;2022-11-03T03:47:01;9.07;;;2.10;;
3573;SDS011;1801;51.050;6.246;2022-11-03T03:49:27;7.37;;;2.20;;
3573;SDS011;1801;51.050;6.246;2022-11-03T03:51:52;8.97;;;2.60;;
3573;SDS011;1801;51.050;6.246;2022-11-03T03:54:18;7.63;;;3.40;;
3573;SDS011;1801;51.050;6.246;2022-11-03T03:56:45;17.20;;;2.30;;
3573;SDS011;1801;51.050;6.246;2022-11-03T03:59:12;6.70;;;2.10;;
3573;SDS011;1801;51.050;6.246;2022-11-03T04:01:37;13.70;;;2.40;;
3573;SDS011;1801;51.050;6.246;2022-11-03T04:04:03;12.83;;;2.37;;
3573;SDS011;1801;51.050;6.246;2022-11-03T04:06:28;11.83;;;2.70;;
3573;SDS011;1801;51.050;6.246;2022-11-03T04:08:53;12.93;;;3.03;;
3573;SDS011;1801;51.050;6.246;2022-11-03T04:11:18;11.23;;;3.47;;
3573;SDS011;1801;51.050;6.246;2022-11-03T04:14:02;6.23;;;2.23;;
3573;SDS011;1801;51.050;6.246;2022-11-03T04:16:46;10.23;;;3.00;;
3573;SDS011;1801;51.050;6.246;2022-11-03T04:19:30;8.30;;;2.23;;
3573;SDS011;1801;51.050;6.246;2022-11-03T04:22:14;13.13;;;2.23;;
3573;SDS011;1801;51.050;6.246;2022-11-03T04:24:49;6.63;;;2.40;;
3573;SDS011;1801;51.050;6.246;2022-11-03T04:29:39;16.40;;;2.53;;
3573;SDS011;1801;51.050;6.246;2022-11-03T04:32:14;8.07;;;3.30;;
3573;SDS011;1801;51.050;6.246;2022-11-03T04:34:40;11.37;;;2.30;;
3573;SDS011;1801;51.050;6.246;2022-11-03T04:37:09;8.60;;;2.53;;
3573;SDS011;1801;51.050;6.246;2022-11-03T04:39:35;12.83;;;2.40;;
3573;SDS011;1801;51.050;6.246;2022-11-03T04:42:01;20.13;;;3.30;;
3573;SDS011;1801;51.050;6.246;2022-11-03T04:44:26;11.47;;;3.10;;
3573;SDS011;1801;51.050;6.246;2022-11-03T04:46:51;10.20;;;3.20;;
3573;SDS011;1801;51.050;6.246;2022-11-03T04:49:21;6.53;;;2.50;;
3573;SDS011;1801;51.050;6.246;2022-11-03T04:51:47;20.93;;;3.13;;
3573;SDS011;1801;51.050;6.246;2022-11-03T04:54:14;12.40;;;3.70;;
3573;SDS011;1801;51.050;6.246;2022-11-03T04:56:39;9.90;;;2.47;;
3573;SDS011;1801;51.050;6.246;2022-11-03T04:59:09;10.80;;;2.30;;
3573;SDS011;1801;51.050;6.246;2022-11-03T05:01:34;12.17;;;2.90;;
3573;SDS011;1801;51.050;6.246;2022-11-03T05:03:59;7.20;;;2.90;;
3573;SDS011;1801;51.050;6.246;2022-11-03T05:06:25;10.73;;;3.47;;
3573;SDS011;1801;51.050;6.246;2022-11-03T05:08:53;16.93;;;2.80;;
3573;SDS011;1801;51.050;6.246;2022-11-03T05:11:20;12.07;;;2.87;;
3573;SDS011;1801;51.050;6.246;2022-11-03T05:13:45;7.43;;;2.10;;
3573;SDS011;1801;51.050;6.246;2022-11-03T05:16:11;9.60;;;3.37;;
3573;SDS011;1801;51.050;6.246;2022-11-03T05:18:37;9.20;;;3.27;;
3573;SDS011;1801;51.050;6.246;2022-11-03T05:21:10;6.90;;;3.97;;
3573;SDS011;1801;51.050;6.246;2022-11-03T05:23:37;12.77;;;2.87;;
3573;SDS011;1801;51.050;6.246;2022-11-03T05:26:03;11.03;;;3.50;;
3573;SDS011;1801;51.050;6.246;2022-11-03T05:28:31;13.17;;;3.70;;
3573;SDS011;1801;51.050;6.246;2022-11-03T05:30:57;13.80;;;2.90;;
3573;SDS011;1801;51.050;6.246;2022-11-03T05:33:33;11.37;;;3.33;;
3573;SDS011;1801;51.050;6.246;2022-11-03T05:36:03;12.53;;;3.43;;
3573;SDS011;1801;51.050;6.246;2022-11-03T05:38:30;16.67;;;2.30;;
3573;SDS011;1801;51.050;6.246;2022-11-03T05:40:56;14.00;;;3.67;;
3573;SDS011;1801;51.050;6.246;2022-11-03T05:43:22;7.13;;;2.80;;
3573;SDS011;1801;51.050;6.246;2022-11-03T05:45:48;17.90;;;3.90;;
3573;SDS011;1801;51.050;6.246;2022-11-03T05:48:18;8.20;;;2.87;;
3573;SDS011;1801;51.050;6.246;2022-11-03T05:50:46;8.63;;;2.93;;
3573;SDS011;1801;51.050;6.246;2022-11-03T05:53:18;6.77;;;2.37;;
3573;SDS011;1801;51.050;6.246;2022-11-03T05:55:45;10.90;;;3.37;;
3573;SDS011;1801;51.050;6.246;2022-11-03T05:58:13;7.33;;;2.67;;
3573;SDS011;1801;51.050;6.246;2022-11-03T06:00:40;11.83;;;2.73;;
3573;SDS011;1801;51.050;6.246;2022-11-03T06:03:06;17.87;;;3.37;;
3573;SDS011;1801;51.050;6.246;2022-11-03T06:05:31;9.00;;;3.40;;
3573;SDS011;1801;51.050;6.246;2022-11-03T06:08:00;11.50;;;3.10;;
3573;SDS011;1801;51.050;6.246;2022-11-03T06:10:30;10.77;;;3.50;;
3573;SDS011;1801;51.050;6.246;2022-11-03T06:12:58;15.20;;;4.43;;
3573;SDS011;1801;51.050;6.246;2022-11-03T06:15:28;14.83;;;3.40;;
3573;SDS011;1801;51.050;6.246;2022-11-03T06:17:53;6.17;;;2.50;;
3573;SDS011;1801;51.050;6.246;2022-11-03T06:20:19;11.63;;;3.13;;
3573;SDS011;1801;51.050;6.246;2022-11-03T06:22:45;12.80;;;3.70;;
3573;SDS011;1801;51.050;6.246;2022-11-03T06:25:15;13.03;;;2.80;;
3573;SDS011;1801;51.050;6.246;2022-11-03T06:27:44;11.70;;;3.93;;
3573;SDS011;1801;51.050;6.246;2022-11-03T06:30:25;8.73;;;2.80;;
3573;SDS011;1801;51.050;6.246;2022-11-03T06:32:52;13.73;;;3.67;;
3573;SDS011;1801;51.050;6.246;2022-11-03T06:35:21;14.57;;;4.13;;
3573;SDS011;1801;51.050;6.246;2022-11-03T06:37:47;12.23;;;4.27;;
3573;SDS011;1801;51.050;6.246;2022-11-03T06:42:37;11.07;;;4.70;;
3573;SDS011;1801;51.050;6.246;2022-11-03T06:45:13;16.50;;;4.53;;
3573;SDS011;1801;51.050;6.246;2022-11-03T06:47:43;8.30;;;4.17;;
3573;SDS011;1801;51.050;6.246;2022-11-03T06:50:21;16.33;;;3.00;;
3573;SDS011;1801;51.050;6.246;2022-11-03T06:52:48;7.63;;;3.03;;
3573;SDS011;1801;51.050;6.246;2022-11-03T06:55:21;11.23;;;2.70;;
3573;SDS011;1801;51.050;6.246;2022-11-03T06:57:48;9.17;;;3.00;;
3573;SDS011;1801;51.050;6.246;2022-11-03T07:05:19;10.30;;;3.73;;
3573;SDS011;1801;51.050;6.246;2022-11-03T07:07:45;13.63;;;3.90;;
3573;SDS011;1801;51.050;6.246;2022-11-03T07:10:11;6.97;;;3.53;;
3573;SDS011;1801;51.050;6.246;2022-11-03T07:12:36;14.43;;;6.23;;
3573;SDS011;1801;51.050;6.246;2022-11-03T07:15:01;16.00;;;5.80;;
3573;SDS011;1801;51.050;6.246;2022-11-03T07:17:26;22.60;;;10.20;;
3573;SDS011;1801;51.050;6.246;2022-11-03T07:19:52;31.30;;;10.87;;
3573;SDS011;1801;51.050;6.246;2022-11-03T07:22:21;22.93;;;6.90;;
3573;SDS011;1801;51.050;6.246;2022-11-03T07:24:47;11.30;;;5.10;;
3573;SDS011;1801;51.050;6.246;2022-11-03T07:29:38;14.13;;;3.97;;
3573;SDS011;1801;51.050;6.246;2022-11-03T07:32:04;14.37;;;7.37;;
3573;SDS011;1801;51.050;6.246;2022-11-03T07:34:33;23.73;;;10.13;;
3573;SDS011;1801;51.050;6.246;2022-11-03T07:36:58;15.43;;;7.20;;
3573;SDS011;1801;51.050;6.246;2022-11-03T07:39:25;19.23;;;9.30;;
3573;SDS011;1801;51.050;6.246;2022-11-03T07:41:51;12.87;;;5.50;;
3573;SDS011;1801;51.050;6.246;2022-11-03T07:44:18;11.23;;;4.60;;
3573;SDS011;1801;51.050;6.246;2022-11-03T07:46:46;6.40;;;2.63;;
3573;SDS011;1801;51.050;6.246;2022-11-03T07:49:25;8.50;;;3.90;;
3573;SDS011;1801;51.050;6.246;2022-11-03T07:51:51;10.23;;;3.73;;
3573;SDS011;1801;51.050;6.246;2022-11-03T07:54:20;14.80;;;3.97;;
3573;SDS011;1801;51.050;6.246;2022-11-03T07:56:49;35.03;;;15.93;;
3573;SDS011;1801;51.050;6.246;2022-11-03T07:59:18;21.27;;;6.03;;
3573;SDS011;1801;51.050;6.246;2022-11-03T08:01:44;17.90;;;5.97;;
3573;SDS011;1801;51.050;6.246;2022-11-03T08:04:12;14.20;;;5.73;;
3573;SDS011;1801;51.050;6.246;2022-11-03T08:06:40;13.23;;;4.00;;
3573;SDS011;1801;51.050;6.246;2022-11-03T08:09:05;10.97;;;3.50;;
3573;SDS011;1801;51.050;6.246;2022-11-03T08:11:31;9.23;;;4.10;;
3573;SDS011;1801;51.050;6.246;2022-11-03T08:13:56;11.27;;;5.90;;
3573;SDS011;1801;51.050;6.246;2022-11-03T08:16:21;9.63;;;4.40;;
3573;SDS011;1801;51.050;6.246;2022-11-03T08:18:46;13.90;;;5.77;;
3573;SDS011;1801;51.050;6.246;2022-11-03T08:21:12;7.20;;;4.13;;
3573;SDS011;1801;51.050;6.246;2022-11-03T08:23:37;15.20;;;4.97;;
3573;SDS011;1801;51.050;6.246;2022-11-03T08:26:03;12.40;;;3.87;;
3573;SDS011;1801;51.050;6.246;2022-11-03T08:28:28;8.60;;;4.00;;
3573;SDS011;1801;51.050;6.246;2022-11-03T08:30:54;18.83;;;4.67;;
3573;SDS011;1801;51.050;6.246;2022-11-03T08:33:19;12.50;;;3.20;;
3573;SDS011;1801;51.050;6.246;2022-11-03T08:35:44;11.93;;;3.37;;
3573;SDS011;1801;51.050;6.246;2022-11-03T08:38:09;12.80;;;3.70;;
3573;SDS011;1801;51.050;6.246;2022-11-03T08:40:35;10.27;;;4.10;;
3573;SDS011;1801;51.050;6.246;2022-11-03T08:43:00;22.33;;;4.27;;
3573;SDS011;1801;51.050;6.246;2022-11-03T08:45:29;9.37;;;3.13;;
3573;SDS011;1801;51.050;6.246;2022-11-03T08:47:54;13.20;;;3.57;;
3573;SDS011;1801;51.050;6.246;2022-11-03T08:50:20;11.37;;;3.40;;
3573;SDS011;1801;51.050;6.246;2022-11-03T08:52:45;6.93;;;3.97;;
3573;SDS011;1801;51.050;6.246;2022-11-03T08:55:10;13.33;;;4.23;;
3573;SDS011;1801;51.050;6.246;2022-11-03T08:57:35;11.03;;;3.93;;
3573;SDS011;1801;51.050;6.246;2022-11-03T09:00:00;14.83;;;3.87;;
3573;SDS011;1801;51.050;6.246;2022-11-03T09:02:26;9.17;;;2.80;;
3573;SDS011;1801;51.050;6.246;2022-11-03T09:04:51;8.70;;;3.23;;
3573;SDS011;1801;51.050;6.246;2022-11-03T09:07:16;5.37;;;2.70;;
3573;SDS011;1801;51.050;6.246;2022-11-03T09:09:41;13.70;;;3.60;;
3573;SDS011;1801;51.050;6.246;2022-11-03T09:12:06;6.93;;;2.60;;
3573;SDS011;1801;51.050;6.246;2022-11-03T09:14:32;11.00;;;3.37;;
3573;SDS011;1801;51.050;6.246;2022-11-03T09:16:57;7.67;;;4.00;;
3573;SDS011;1801;51.050;6.246;2022-11-03T09:19:22;8.13;;;2.73;;
3573;SDS011;1801;51.050;6.246;2022-11-03T09:21:47;8.83;;;2.93;;
3573;SDS011;1801;51.050;6.246;2022-11-03T09:24:12;5.63;;;2.57;;
3573;SDS011;1801;51.050;6.246;2022-11-03T09:26:37;9.87;;;3.77;;
3573;SDS011;1801;51.050;6.246;2022-11-03T09:29:03;9.50;;;3.53;;
3573;SDS011;1801;51.050;6.246;2022-11-03T09:31:28;18.20;;;4.50;;
3573;SDS011;1801;51.050;6.246;2022-11-03T09:33:53;12.30;;;4.90;;
3573;SDS011;1801;51.050;6.246;2022-11-03T09:36:19;14.33;;;4.70;;
3573;SDS011;1801;51.050;6.246;2022-11-03T09:38:44;8.63;;;3.23;;
3573;SDS011;1801;51.050;6.246;2022-11-03T09:41:09;16.97;;;4.07;;
3573;SDS011;1801;51.050;6.246;2022-11-03T09:43:41;11.10;;;3.90;;
3573;SDS011;1801;51.050;6.246;2022-11-03T09:46:06;7.53;;;2.77;;
3573;SDS011;1801;51.050;6.246;2022-11-03T09:48:32;9.47;;;3.47;;
3573;SDS011;1801;51.050;6.246;2022-11-03T09:50:57;7.90;;;2.70;;
3573;SDS011;1801;51.050;6.246;2022-11-03T09:53:22;13.03;;;3.57;;
3573;SDS011;1801;51.050;6.246;2022-11-03T09:55:47;12.70;;;4.90;;
3573;SDS011;1801;51.050;6.246;2022-11-03T09:58:13;7.50;;;3.10;;
3573;SDS011;1801;51.050;6.246;2022-11-03T10:00:38;9.90;;;3.97;;
3573;SDS011;1801;51.050;6.246;2022-11-03T10:03:04;12.77;;;4.30;;
3573;SDS011;1801;51.050;6.246;2022-11-03T10:05:29;16.63;;;3.50;;
3573;SDS011;1801;51.050;6.246;2022-11-03T10:08:01;8.10;;;3.43;;
3573;SDS011;1801;51.050;6.246;2022-11-03T10:10:27;8.00;;;3.50;;
3573;SDS011;1801;51.050;6.246;2022-11-03T10:12:53;8.90;;;3.03;;
3573;SDS011;1801;51.050;6.246;2022-11-03T10:15:19;11.33;;;4.10;;
3573;SDS011;1801;51.050;6.246;2022-11-03T10:17:45;11.43;;;3.50;;
3573;SDS011;1801;51.050;6.246;2022-11-03T10:20:14;9.43;;;3.67;;
3573;SDS011;1801;51.050;6.246;2022-11-03T10:22:40;11.77;;;3.63;;
3573;SDS011;1801;51.050;6.246;2022-11-03T10:25:25;7.00;;;3.60;;
3573;SDS011;1801;51.050;6.246;2022-11-03T10:27:51;8.73;;;3.00;;
3573;SDS011;1801;51.050;6.246;2022-11-03T10:30:16;10.80;;;3.83;;
3573;SDS011;1801;51.050;6.246;2022-11-03T10:32:41;8.53;;;3.03;;
3573;SDS011;1801;51.050;6.246;2022-11-03T10:37:50;10.50;;;2.37;;
3573;SDS011;1801;51.050;6.246;2022-11-03T10:40:32;4.93;;;2.30;;
3573;SDS011;1801;51.050;6.246;2022-11-03T10:42:57;13.30;;;3.00;;
3573;SDS011;1801;51.050;6.246;2022-11-03T10:45:23;8.00;;;3.20;;
3573;SDS011;1801;51.050;6.246;2022-11-03T10:47:58;8.73;;;2.47;;
3573;SDS011;1801;51.050;6.246;2022-11-03T10:50:25;13.73;;;2.77;;
3573;SDS011;1801;51.050;6.246;2022-11-03T10:52:51;6.30;;;2.37;;
3573;SDS011;1801;51.050;6.246;2022-11-03T10:55:16;7.17;;;2.70;;
3573;SDS011;1801;51.050;6.246;2022-11-03T10:57:42;12.90;;;3.13;;
3573;SDS011;1801;51.050;6.246;2022-11-03T11:00:11;9.80;;;2.93;;
3573;SDS011;1801;51.050;6.246;2022-11-03T11:02:37;8.20;;;3.10;;
3573;SDS011;1801;51.050;6.246;2022-11-03T11:05:27;8.23;;;2.30;;
3573;SDS011;1801;51.050;6.246;2022-11-03T11:07:51;6.40;;;2.40;;
3573;SDS011;1801;51.050;6.246;2022-11-03T11:15:36;6.90;;;2.40;;
3573;SDS011;1801;51.050;6.246;2022-11-03T11:18:02;5.17;;;1.93;;
3573;SDS011;1801;51.050;6.246;2022-11-03T11:20:37;10.90;;;2.53;;
3573;SDS011;1801;51.050;6.246;2022-11-03T11:28:31;6.47;;;1.87;;
3573;SDS011;1801;51.050;6.246;2022-11-03T11:30:56;13.63;;;3.80;;
3573;SDS011;1801;51.050;6.246;2022-11-03T11:33:22;5.50;;;3.00;;
3573;SDS011;1801;51.050;6.246;2022-11-03T11:40:57;2.53;;;1.60;;
3573;SDS011;1801;51.050;6.246;2022-11-03T11:48:31;6.50;;;2.23;;
3573;SDS011;1801;51.050;6.246;2022-11-03T11:50:57;7.67;;;1.70;;
3573;SDS011;1801;51.050;6.246;2022-11-03T11:53:22;4.67;;;1.37;;
3573;SDS011;1801;51.050;6.246;2022-11-03T11:55:49;4.07;;;1.83;;
3573;SDS011;1801;51.050;6.246;2022-11-03T11:58:36;6.80;;;2.40;;
3573;SDS011;1801;51.050;6.246;2022-11-03T12:01:03;7.93;;;2.07;;
3573;SDS011;1801;51.050;6.246;2022-11-03T12:03:31;3.70;;;1.70;;
3573;SDS011;1801;51.050;6.246;2022-11-03T12:05:56;4.97;;;1.73;;
3573;SDS011;1801;51.050;6.246;2022-11-03T12:08:26;4.70;;;1.90;;
3573;SDS011;1801;51.050;6.246;2022-11-03T12:10:56;4.20;;;1.60;;
3573;SDS011;1801;51.050;6.246;2022-11-03T12:16:06;4.70;;;1.80;;
3573;SDS011;1801;51.050;6.246;2022-11-03T12:18:33;4.37;;;2.00;;
3573;SDS011;1801;51.050;6.246;2022-11-03T12:20:59;12.90;;;2.53;;
3573;SDS011;1801;51.050;6.246;2022-11-03T12:26:10;9.00;;;2.17;;
3573;SDS011;1801;51.050;6.246;2022-11-03T12:28:37;5.50;;;1.97;;
3573;SDS011;1801;51.050;6.246;2022-11-03T12:31:02;6.57;;;2.10;;
3573;SDS011;1801;51.050;6.246;2022-11-03T12:33:28;8.10;;;1.67;;
3573;SDS011;1801;51.050;6.246;2022-11-03T12:35:54;9.60;;;2.43;;
3573;SDS011;1801;51.050;6.246;2022-11-03T12:38:19;4.43;;;2.40;;
3573;SDS011;1801;51.050;6.246;2022-11-03T12:40:44;7.63;;;2.33;;
3573;SDS011;1801;51.050;6.246;2022-11-03T12:43:09;5.70;;;1.73;;
3573;SDS011;1801;51.050;6.246;2022-11-03T12:45:34;15.23;;;2.37;;
3573;SDS011;1801;51.050;6.246;2022-11-03T12:48:00;5.67;;;1.80;;
3573;SDS011;1801;51.050;6.246;2022-11-03T12:50:25;5.63;;;2.20;;
3573;SDS011;1801;51.050;6.246;2022-11-03T12:52:50;8.43;;;2.07;;
3573;SDS011;1801;51.050;6.246;2022-11-03T12:55:15;7.73;;;3.33;;
3573;SDS011;1801;51.050;6.246;2022-11-03T12:57:40;10.20;;;2.07;;
3573;SDS011;1801;51.050;6.246;2022-11-03T13:00:07;7.53;;;3.63;;
3573;SDS011;1801;51.050;6.246;2022-11-03T13:02:33;11.90;;;5.20;;
3573;SDS011;1801;51.050;6.246;2022-11-03T13:04:58;5.57;;;1.90;;
3573;SDS011;1801;51.050;6.246;2022-11-03T13:07:23;6.43;;;2.67;;
3573;SDS011;1801;51.050;6.246;2022-11-03T13:09:48;2.20;;;1.83;;
3573;SDS011;1801;51.050;6.246;2022-11-03T13:12:14;3.10;;;1.73;;
3573;SDS011;1801;51.050;6.246;2022-11-03T13:14:59;9.63;;;3.23;;
3573;SDS011;1801;51.050;6.246;2022-11-03T13:17:25;10.63;;;3.10;;
3573;SDS011;1801;51.050;6.246;2022-11-03T13:19:50;5.20;;;1.80;;
3573;SDS011;1801;51.050;6.246;2022-11-03T13:22:16;7.37;;;3.10;;
3573;SDS011;1801;51.050;6.246;2022-11-03T13:24:41;15.20;;;2.00;;
3573;SDS011;1801;51.050;6.246;2022-11-03T13:27:06;17.10;;;2.73;;
3573;SDS011;1801;51.050;6.246;2022-11-03T13:29:31;6.47;;;2.07;;
3573;SDS011;1801;51.050;6.246;2022-11-03T13:31:57;2.23;;;1.53;;
3573;SDS011;1801;51.050;6.246;2022-11-03T13:34:22;4.70;;;1.77;;
3573;SDS011;1801;51.050;6.246;2022-11-03T13:36:47;5.10;;;1.60;;
3573;SDS011;1801;51.050;6.246;2022-11-03T13:39:13;2.73;;;1.67;;
3573;SDS011;1801;51.050;6.246;2022-11-03T13:41:38;5.10;;;1.33;;
3573;SDS011;1801;51.050;6.246;2022-11-03T13:44:03;6.37;;;1.90;;
3573;SDS011;1801;51.050;6.246;2022-11-03T13:46:28;3.43;;;1.90;;
3573;SDS011;1801;51.050;6.246;2022-11-03T13:48:53;5.83;;;2.07;;
3573;SDS011;1801;51.050;6.246;2022-11-03T13:51:19;5.93;;;2.10;;
3573;SDS011;1801;51.050;6.246;2022-11-03T13:53:45;7.23;;;2.47;;
3573;SDS011;1801;51.050;6.246;2022-11-03T13:56:10;4.53;;;2.73;;
3573;SDS011;1801;51.050;6.246;2022-11-03T13:58:35;12.00;;;2.47;;
3573;SDS011;1801;51.050;6.246;2022-11-03T14:01:01;4.50;;;2.03;;
3573;SDS011;1801;51.050;6.246;2022-11-03T14:03:26;15.30;;;2.20;;
3573;SDS011;1801;51.050;6.246;2022-11-03T14:05:52;9.73;;;2.70;;
3573;SDS011;1801;51.050;6.246;2022-11-03T14:08:17;10.07;;;2.50;;
3573;SDS011;1801;51.050;6.246;2022-11-03T14:10:42;3.00;;;2.30;;
3573;SDS011;1801;51.050;6.246;2022-11-03T14:13:07;9.80;;;2.77;;
3573;SDS011;1801;51.050;6.246;2022-11-03T14:15:32;12.97;;;4.47;;
3573;SDS011;1801;51.050;6.246;2022-11-03T14:17:58;10.17;;;4.90;;
3573;SDS011;1801;51.050;6.246;2022-11-03T14:20:23;6.17;;;3.57;;
3573;SDS011;1801;51.050;6.246;2022-11-03T14:22:49;10.20;;;4.67;;
3573;SDS011;1801;51.050;6.246;2022-11-03T14:25:14;8.53;;;4.20;;
3573;SDS011;1801;51.050;6.246;2022-11-03T14:27:39;12.50;;;3.20;;
3573;SDS011;1801;51.050;6.246;2022-11-03T14:30:04;16.73;;;5.87;;
3573;SDS011;1801;51.050;6.246;2022-11-03T14:32:30;13.00;;;4.87;;
3573;SDS011;1801;51.050;6.246;2022-11-03T14:34:55;8.23;;;3.70;;
3573;SDS011;1801;51.050;6.246;2022-11-03T14:37:20;14.60;;;7.30;;
3573;SDS011;1801;51.050;6.246;2022-11-03T14:39:49;6.97;;;3.83;;
3573;SDS011;1801;51.050;6.246;2022-11-03T14:42:14;12.67;;;5.40;;
3573;SDS011;1801;51.050;6.246;2022-11-03T14:44:40;19.10;;;7.10;;
3573;SDS011;1801;51.050;6.246;2022-11-03T14:47:07;16.43;;;6.97;;
3573;SDS011;1801;51.050;6.246;2022-11-03T14:49:33;15.00;;;5.97;;
3573;SDS011;1801;51.050;6.246;2022-11-03T14:51:59;13.30;;;3.90;;
3573;SDS011;1801;51.050;6.246;2022-11-03T14:54:25;10.83;;;5.93;;
3573;SDS011;1801;51.050;6.246;2022-11-03T14:56:51;11.27;;;5.40;;
3573;SDS011;1801;51.050;6.246;2022-11-03T14:59:16;12.93;;;5.90;;
3573;SDS011;1801;51.050;6.246;2022-11-03T15:01:42;23.97;;;9.30;;
3573;SDS011;1801;51.050;6.246;2022-11-03T15:04:07;20.57;;;9.37;;
3573;SDS011;1801;51.050;6.246;2022-11-03T15:06:33;14.00;;;6.70;;
3573;SDS011;1801;51.050;6.246;2022-11-03T15:08:58;12.77;;;6.87;;
3573;SDS011;1801;51.050;6.246;2022-11-03T15:11:23;20.17;;;8.30;;
3573;SDS011;1801;51.050;6.246;2022-11-03T15:13:48;12.23;;;5.20;;
3573;SDS011;1801;51.050;6.246;2022-11-03T15:16:13;12.43;;;5.40;;
3573;SDS011;1801;51.050;6.246;2022-11-03T15:18:39;12.57;;;6.10;;
3573;SDS011;1801;51.050;6.246;2022-11-03T15:21:05;17.13;;;8.03;;
3573;SDS011;1801;51.050;6.246;2022-11-03T15:23:30;16.70;;;4.10;;
3573;SDS011;1801;51.050;6.246;2022-11-03T15:25:55;6.50;;;3.00;;
3573;SDS011;1801;51.050;6.246;2022-11-03T15:28:20;3.20;;;2.00;;
3573;SDS011;1801;51.050;6.246;2022-11-03T15:30:46;7.20;;;2.30;;
3573;SDS011;1801;51.050;6.246;2022-11-03T15:33:12;6.10;;;2.50;;
3573;SDS011;1801;51.050;6.246;2022-11-03T15:35:37;5.70;;;2.20;;
3573;SDS011;1801;51.050;6.246;2022-11-03T15:38:02;2.27;;;1.80;;
3573;SDS011;1801;51.050;6.246;2022-11-03T15:40:28;4.80;;;2.67;;
3573;SDS011;1801;51.050;6.246;2022-11-03T15:42:53;9.10;;;3.00;;
3573;SDS011;1801;51.050;6.246;2022-11-03T15:45:18;6.40;;;2.90;;
3573;SDS011;1801;51.050;6.246;2022-11-03T15:47:43;5.40;;;2.53;;
3573;SDS011;1801;51.050;6.246;2022-11-03T15:50:09;2.53;;;2.03;;
3573;SDS011;1801;51.050;6.246;2022-11-03T15:52:34;4.83;;;2.00;;
3573;SDS011;1801;51.050;6.246;2022-11-03T15:55:00;6.77;;;2.30;;
3573;SDS011;1801;51.050;6.246;2022-11-03T15:57:25;3.07;;;2.10;;
3573;SDS011;1801;51.050;6.246;2022-11-03T15:59:50;7.60;;;2.67;;
3573;SDS011;1801;51.050;6.246;2022-11-03T16:02:15;5.20;;;2.53;;